To NAV CANADA Home Page Login to a new session Search on AWWS site Feedback and Comments Disclaimer Vers la page française équivalente Tips FAQ What's new on the site To the Forecasts and Observations / NOTAM section To "File a Flight Plan" website Publications and other links Update of the User's profile FIC Telephone Numbers My Weather Data Folder Route Weather Data Regional Weather Data Local Weather Data To the Forecasts and Observations / NOTAM section
Request Generated 03/23/2017 at 00:20:45 UTC . Weather information available at that time is displayed.

METAR/TAF

MONTREAL/ST-HUBERT/QC    (show WxCam)

METAR CYHU 230000Z AUTO 29015G20KT 9SM CLR M08/M20 A3037 RMK SLP289=
METAR CYHU 222300Z AUTO 30011G22KT 9SM CLR M08/M20 A3035 RMK SLP281=
METAR CYHU 222200Z AUTO 29019G27KT 9SM CLR M07/M20 A3032 RMK SLP271=

TAF CYHU 222338Z 2300/2324 30010G20KT P6SM FEW050
BECMG 2300/2302 28012KT
FM230800 28008KT P6SM SKC
FM231600 26010G20KT P6SM FEW040
RMK FCST BASED ON AUTO OBS. NXT FCST BY 230600Z=
Your time UTC time
Weather data provided by Environment Canada and NAV CANADA